Time;durP1;ratioP1;P1;durP2;ratioP2;P2;SDS_P1;SDS_P2;PMS_P1;PMS_P2;Temp;Humidity;BMP_temperature;BMP_pressure;BME280_temperature;BME280_humidity;BME280_pressure;Samples;Min_cycle;Max_cycle;Signal;HPM_P1;HPM_P2
2021/11/02 00:01:44;;;;;;;32.58;20.80;;;9.60;99.90;;;;;;5074337;28;20181;-72
2021/11/02 00:04:12;;;;;;;33.25;20.05;;;9.60;99.90;;;;;;5074153;28;20177;-70
2021/11/02 00:06:51;;;;;;;34.10;21.35;;;9.60;99.90;;;;;;5074336;28;20556;-72
2021/11/02 00:09:21;;;;;;;30.75;21.35;;;9.60;99.90;;;;;;5073424;28;20196;-72
2021/11/02 00:11:52;;;;;;;35.33;20.80;;;9.50;99.90;;;;;;5074175;28;20222;-72
2021/11/02 00:14:18;;;;;;;32.28;21.00;;;9.50;99.90;;;;;;5074032;28;20213;-70
2021/11/02 00:16:57;;;;;;;31.95;22.10;;;9.50;99.90;;;;;;5074770;28;20185;-70
2021/11/02 00:19:30;;;;;;;34.72;21.42;;;9.50;99.90;;;;;;5091360;28;20720;-70
2021/11/02 00:22:07;;;;;;;36.38;21.65;;;9.40;99.90;;;;;;5073597;28;20564;-69
2021/11/02 00:27:01;;;;;;;33.95;20.23;;;9.40;99.90;;;;;;5075144;28;20235;-71
2021/11/02 00:29:28;;;;;;;39.65;22.63;;;9.40;99.90;;;;;;5073761;28;20287;-70
2021/11/02 00:32:02;;;;;;;37.28;22.27;;;9.40;99.90;;;;;;5073650;28;20534;-71
2021/11/02 00:34:37;;;;;;;34.78;21.15;;;9.30;99.90;;;;;;5073732;28;20224;-72
2021/11/02 00:37:03;;;;;;;34.17;21.65;;;9.30;99.90;;;;;;5073657;28;20189;-70
2021/11/02 00:39:31;;;;;;;29.47;20.57;;;9.30;99.90;;;;;;5073741;28;20204;-69
2021/11/02 00:41:59;;;;;;;35.97;22.50;;;9.30;99.90;;;;;;5074679;28;20464;-69
2021/11/02 00:44:24;;;;;;;40.17;23.42;;;9.30;99.90;;;;;;5073111;28;20540;-70
2021/11/02 00:46:52;;;;;;;32.13;21.15;;;9.30;99.90;;;;;;5073371;28;20185;-68
2021/11/02 00:49:21;;;;;;;38.25;23.00;;;9.30;99.90;;;;;;5073352;28;20220;-70
2021/11/02 00:51:49;;;;;;;34.25;22.75;;;9.30;99.90;;;;;;5073691;28;20185;-70
2021/11/02 00:54:16;;;;;;;32.40;21.10;;;9.30;99.90;;;;;;5074661;28;20212;-70
2021/11/02 00:56:44;;;;;;;35.85;21.60;;;9.20;99.90;;;;;;5073168;28;20182;-71
2021/11/02 00:59:23;;;;;;;37.95;22.05;;;9.20;99.90;;;;;;5071370;28;20218;-72
2021/11/02 01:02:00;;;;;;;32.22;21.73;;;9.20;99.90;;;;;;5073060;28;20656;-72
2021/11/02 01:04:31;;;;;;;35.10;22.80;;;9.20;99.90;;;;;;5073109;28;20196;-72
2021/11/02 01:06:57;;;;;;;37.70;22.73;;;9.30;99.90;;;;;;5090141;28;20672;-72
2021/11/02 01:09:27;;;;;;;36.30;21.95;;;9.30;99.90;;;;;;5072787;28;20205;-70
2021/11/02 01:11:53;;;;;;;33.67;21.75;;;9.30;99.90;;;;;;5072876;28;20272;-68
2021/11/02 01:14:19;;;;;;;35.60;22.83;;;9.30;99.90;;;;;;5072989;28;20308;-71
2021/11/02 01:16:45;;;;;;;37.58;22.23;;;9.30;99.90;;;;;;5074568;28;20800;-68
2021/11/02 01:19:12;;;;;;;32.78;21.55;;;9.20;99.90;;;;;;5072943;28;20193;-70
2021/11/02 01:21:38;;;;;;;35.35;22.65;;;9.30;99.90;;;;;;5072905;28;20238;-70
2021/11/02 01:24:04;;;;;;;32.42;22.58;;;9.20;99.90;;;;;;5072754;28;20185;-72
2021/11/02 01:26:32;;;;;;;35.08;21.95;;;9.20;99.90;;;;;;5073153;28;20181;-70
2021/11/02 01:29:04;;;;;;;32.88;21.83;;;9.20;99.90;;;;;;5072398;28;20603;-72
2021/11/02 01:31:31;;;;;;;37.17;24.52;;;9.10;99.90;;;;;;5072734;28;20203;-68
2021/11/02 01:33:57;;;;;;;31.80;21.05;;;9.10;99.90;;;;;;5072429;28;20216;-70
2021/11/02 01:36:25;;;;;;;35.47;23.73;;;9.10;99.90;;;;;;5072640;28;20185;-72
2021/11/02 01:38:57;;;;;;;34.03;21.70;;;9.10;99.90;;;;;;5072198;28;20587;-71
2021/11/02 01:41:26;;;;;;;33.50;19.90;;;9.00;99.90;;;;;;5072943;28;20192;-70
2021/11/02 01:43:53;;;;;;;38.53;25.40;;;9.00;99.90;;;;;;5072401;28;20275;-70
2021/11/02 01:46:29;;;;;;;34.92;23.02;;;9.00;99.90;;;;;;5072549;28;20182;-72
2021/11/02 01:49:02;;;;;;;33.45;22.73;;;9.00;99.90;;;;;;5089035;28;20225;-72
2021/11/02 01:51:30;;;;;;;36.90;22.58;;;9.00;99.90;;;;;;5072666;28;20234;-70
2021/11/02 01:53:58;;;;;;;39.42;24.52;;;8.90;99.90;;;;;;5072020;28;20213;-70
2021/11/02 01:56:24;;;;;;;41.17;24.88;;;8.90;99.90;;;;;;5071817;28;20178;-69
2021/11/02 01:58:54;;;;;;;39.20;23.65;;;8.90;99.90;;;;;;5072273;28;20246;-69
2021/11/02 02:01:51;;;;;;;35.05;23.42;;;8.90;99.90;;;;;;5072633;28;20568;-71
2021/11/02 02:04:20;;;;;;;42.80;24.52;;;8.90;99.90;;;;;;5072133;28;20199;-69
2021/11/02 02:07:18;;;;;;;38.80;23.65;;;8.90;99.90;;;;;;5072274;28;20264;-70
2021/11/02 02:09:52;;;;;;;39.10;22.88;;;9.00;99.90;;;;;;5072089;28;20239;-70
2021/11/02 02:13:09;;;;;;;37.60;23.08;;;8.90;99.90;;;;;;5072445;28;20169;-72
2021/11/02 02:15:50;;;;;;;38.85;22.30;;;9.00;99.90;;;;;;5011549;28;20230;-71
2021/11/02 02:18:26;;;;;;;32.53;22.55;;;9.00;99.90;;;;;;5011718;28;20175;-70
2021/11/02 02:20:55;;;;;;;37.47;23.00;;;9.00;99.90;;;;;;5050401;28;20232;-68
2021/11/02 02:23:54;;;;;;;38.65;23.52;;;9.00;99.90;;;;;;5072222;28;20255;-69
2021/11/02 02:26:41;;;;;;;38.88;23.13;;;9.00;99.90;;;;;;5072587;28;20207;-70
2021/11/02 02:29:07;;;;;;;32.65;22.00;;;9.10;99.90;;;;;;5072066;28;20546;-70
2021/11/02 02:31:40;;;;;;;35.67;21.60;;;9.10;99.90;;;;;;5071719;28;20177;-72
2021/11/02 02:34:12;;;;;;;33.47;22.00;;;9.10;99.90;;;;;;5071824;28;20212;-72
2021/11/02 02:36:40;;;;;;;32.45;22.23;;;9.10;99.90;;;;;;5088871;28;20169;-71
2021/11/02 02:39:09;;;;;;;37.25;22.48;;;9.20;99.90;;;;;;5088752;28;20547;-70
2021/11/02 02:41:37;;;;;;;37.17;23.17;;;9.20;99.90;;;;;;5072109;28;20204;-69
2021/11/02 02:44:06;;;;;;;35.20;22.45;;;9.20;99.90;;;;;;5072035;28;20181;-70
2021/11/02 02:46:34;;;;;;;36.30;21.67;;;9.20;99.90;;;;;;5088918;28;20177;-72
2021/11/02 02:49:01;;;;;;;36.10;22.52;;;9.20;99.90;;;;;;5073597;28;20181;-71
2021/11/02 02:51:28;;;;;;;37.13;21.60;;;9.20;99.90;;;;;;5071880;28;20647;-70
2021/11/02 02:54:03;;;;;;;37.63;22.38;;;9.20;99.90;;;;;;5071594;28;20274;-72
2021/11/02 02:56:36;;;;;;;33.60;22.30;;;9.30;99.90;;;;;;5088818;28;20177;-72
2021/11/02 02:59:04;;;;;;;36.92;21.70;;;9.30;99.90;;;;;;5071661;28;20239;-70
2021/11/02 03:01:36;;;;;;;35.75;21.25;;;9.30;99.90;;;;;;5071965;28;20264;-72
2021/11/02 03:04:08;;;;;;;36.65;22.58;;;9.30;99.90;;;;;;5071947;28;20189;-70
2021/11/02 03:06:42;;;;;;;36.55;22.80;;;9.40;99.90;;;;;;5072001;28;20567;-71
2021/11/02 03:09:13;;;;;;;30.40;22.05;;;9.40;99.90;;;;;;5072759;28;20250;-72
2021/11/02 03:11:42;;;;;;;37.67;21.73;;;9.50;99.90;;;;;;5091875;28;20254;-68
2021/11/02 03:14:19;;;;;;;38.50;23.50;;;9.50;99.90;;;;;;5075083;28;20228;-70
2021/11/02 03:17:11;;;;;;;35.65;21.90;;;9.50;99.90;;;;;;5075216;28;20197;-70
2021/11/02 03:45:09;;;;;;;38.22;21.70;;;9.80;99.90;;;;;;5076486;28;20745;-68
2021/11/02 03:50:44;;;;;;;33.47;21.90;;;9.80;99.90;;;;;;5076487;28;20247;-71
2021/11/02 04:02:05;;;;;;;41.38;21.77;;;9.80;99.90;;;;;;4986764;28;20200;-69
2021/11/02 04:27:15;;;;;;;35.42;20.67;;;10.10;99.90;;;;;;5075490;28;20161;-69
2021/11/02 04:45:30;;;;;;;75.40;42.08;;;10.00;99.90;;;;;;5075063;28;20239;-71
2021/11/02 05:57:32;;;;;;;37.15;22.85;;;9.50;99.90;;;;;;5071692;28;20177;-71
2021/11/02 06:00:26;;;;;;;37.90;23.10;;;9.50;99.90;;;;;;5068859;28;20228;-72
2021/11/02 06:05:47;;;;;;;41.90;24.98;;;9.50;99.90;;;;;;5053167;28;20288;-71
2021/11/02 06:08:45;;;;;;;43.92;24.67;;;9.50;99.90;;;;;;5082101;28;20520;-70
2021/11/02 06:23:36;;;;;;;38.42;20.95;;;9.50;99.90;;;;;;5072429;28;20200;-71
2021/11/02 06:29:01;;;;;;;42.90;24.95;;;9.50;99.90;;;;;;5071358;28;20239;-70
2021/11/02 06:31:40;;;;;;;40.55;24.63;;;9.50;99.90;;;;;;5065462;28;20204;-70
2021/11/02 06:34:19;;;;;;;41.92;23.80;;;9.50;99.90;;;;;;5062358;28;20260;-71
2021/11/02 06:39:51;;;;;;;46.35;26.45;;;9.50;99.90;;;;;;5070641;28;20677;-71
2021/11/02 06:57:19;;;;;;;47.67;27.08;;;9.50;99.90;;;;;;5070893;28;20216;-72
2021/11/02 08:46:36;;;;;;;41.90;24.30;;;10.60;99.90;;;;;;5063336;28;20567;-72
2021/11/02 08:49:06;;;;;;;41.13;24.80;;;10.70;99.90;;;;;;5067185;28;20188;-73
2021/11/02 08:51:35;;;;;;;45.70;26.17;;;10.70;99.90;;;;;;5065012;28;20186;-70
2021/11/02 08:54:07;;;;;;;44.95;25.80;;;10.70;99.90;;;;;;5067446;28;20221;-73
2021/11/02 08:56:34;;;;;;;43.15;25.63;;;10.70;99.90;;;;;;5070093;28;20579;-71
2021/11/02 08:59:01;;;;;;;42.83;24.77;;;10.70;99.90;;;;;;5067628;28;20201;-71
2021/11/02 09:01:29;;;;;;;42.90;26.02;;;10.70;99.90;;;;;;5069959;28;20181;-73
2021/11/02 09:03:59;;;;;;;41.28;26.45;;;10.70;99.90;;;;;;5067777;28;20599;-70
2021/11/02 09:06:48;;;;;;;48.28;25.73;;;10.70;99.90;;;;;;5068543;28;20181;-74
2021/11/02 09:09:17;;;;;;;50.78;27.38;;;10.80;99.90;;;;;;5067809;28;20201;-71
2021/11/02 09:11:48;;;;;;;42.65;25.02;;;10.80;99.90;;;;;;5064929;28;20215;-72
2021/11/02 09:14:17;;;;;;;44.20;26.40;;;10.80;99.90;;;;;;5067388;28;20228;-71
2021/11/02 09:16:52;;;;;;;44.92;25.92;;;10.90;99.90;;;;;;5077476;28;20211;-74
2021/11/02 09:19:26;;;;;;;38.80;23.95;;;10.90;99.90;;;;;;5079807;28;20200;-74
2021/11/02 09:21:59;;;;;;;45.15;24.98;;;11.00;99.90;;;;;;5068369;28;20215;-74
2021/11/02 09:24:31;;;;;;;50.83;27.75;;;11.00;99.90;;;;;;5066745;28;20208;-73
2021/11/02 09:27:02;;;;;;;44.53;26.25;;;11.00;99.90;;;;;;5087525;28;20185;-75
2021/11/02 09:29:32;;;;;;;48.90;26.23;;;11.00;99.90;;;;;;5082724;28;20626;-72
2021/11/02 09:32:00;;;;;;;43.13;26.02;;;11.10;99.90;;;;;;5066592;28;22046;-69
2021/11/02 09:34:27;;;;;;;67.78;36.40;;;11.10;99.90;;;;;;5069321;28;20274;-70
2021/11/02 09:37:08;;;;;;;48.38;28.27;;;11.10;99.90;;;;;;5070255;28;20184;-70
2021/11/02 09:39:53;;;;;;;52.38;29.15;;;11.20;99.90;;;;;;5066211;28;20216;-73
2021/11/02 09:42:57;;;;;;;53.25;30.73;;;11.20;99.90;;;;;;5084340;28;20212;-73
2021/11/02 09:45:45;;;;;;;50.35;29.77;;;11.20;99.90;;;;;;5064221;28;20717;-74
2021/11/02 09:48:51;;;;;;;50.13;30.08;;;11.20;99.90;;;;;;5082981;28;20184;-73
2021/11/02 09:52:16;;;;;;;53.03;27.95;;;11.30;99.90;;;;;;5063789;28;20570;-74
2021/11/02 09:55:10;;;;;;;46.50;25.50;;;11.30;99.90;;;;;;4984975;28;20228;-74
2021/11/02 09:57:51;;;;;;;44.05;26.58;;;11.30;99.90;;;;;;5076451;28;20181;-74
2021/11/02 10:00:37;;;;;;;43.97;26.67;;;11.30;99.90;;;;;;5064990;28;20224;-72
2021/11/02 10:03:07;;;;;;;43.83;26.83;;;11.30;99.90;;;;;;5085783;28;20223;-72
2021/11/02 10:05:54;;;;;;;41.78;26.30;;;11.40;99.90;;;;;;5074447;28;20292;-73
2021/11/02 10:08:46;;;;;;;43.20;26.58;;;11.40;99.90;;;;;;5062790;28;20198;-74
2021/11/02 10:11:24;;;;;;;42.97;26.55;;;11.40;99.90;;;;;;5067979;28;20247;-72
2021/11/02 10:14:07;;;;;;;45.05;25.98;;;11.50;99.90;;;;;;5063717;28;20806;-73
2021/11/02 10:16:51;;;;;;;48.60;27.85;;;11.50;99.90;;;;;;5062072;28;20180;-74
2021/11/02 10:19:47;;;;;;;45.35;26.20;;;11.50;99.90;;;;;;5085809;28;20196;-70
2021/11/02 10:22:29;;;;;;;43.70;26.58;;;11.50;99.90;;;;;;5084096;28;20185;-70
2021/11/02 10:25:36;;;;;;;39.95;23.48;;;11.50;99.90;;;;;;5086299;28;20583;-72
2021/11/02 10:28:42;;;;;;;41.25;24.08;;;11.50;99.90;;;;;;5074586;28;20710;-71
2021/11/02 10:31:35;;;;;;;38.65;24.77;;;11.50;99.90;;;;;;5065615;28;20223;-70
2021/11/02 10:34:15;;;;;;;40.30;23.08;;;11.50;99.90;;;;;;5071154;28;20716;-72
2021/11/02 10:36:49;;;;;;;44.78;24.83;;;11.50;99.90;;;;;;5069643;28;20563;-70
2021/11/02 10:39:36;;;;;;;45.42;26.25;;;11.50;99.90;;;;;;5070904;28;20233;-71
2021/11/02 10:42:20;;;;;;;46.20;25.45;;;11.50;99.90;;;;;;5065067;28;20173;-71
2021/11/02 10:45:01;;;;;;;44.33;25.88;;;11.60;99.90;;;;;;5059566;28;20572;-70
2021/11/02 10:47:52;;;;;;;47.60;27.75;;;11.50;99.90;;;;;;5067855;28;20214;-70
2021/11/02 10:50:28;;;;;;;42.58;25.58;;;11.60;99.90;;;;;;5060937;28;20220;-70
2021/11/02 10:53:08;;;;;;;39.90;24.77;;;11.50;99.90;;;;;;5054043;28;20181;-72
2021/11/02 10:56:10;;;;;;;36.95;24.75;;;11.50;99.90;;;;;;5054874;28;20228;-72
2021/11/02 10:58:52;;;;;;;39.63;22.70;;;11.50;99.90;;;;;;5042641;28;20197;-71
2021/11/02 11:01:23;;;;;;;33.47;22.50;;;11.50;99.90;;;;;;5073593;28;20193;-73
2021/11/02 11:04:02;;;;;;;34.58;20.60;;;11.50;99.90;;;;;;5081474;28;20178;-73
2021/11/02 11:06:34;;;;;;;28.23;18.35;;;11.50;99.90;;;;;;5070965;28;20575;-72
2021/11/02 11:09:03;;;;;;;34.50;21.02;;;11.40;99.90;;;;;;5071347;28;20177;-72
2021/11/02 11:11:33;;;;;;;37.45;23.25;;;11.40;99.90;;;;;;5067514;28;20656;-70
2021/11/02 11:14:17;;;;;;;36.25;23.65;;;11.50;99.90;;;;;;5059103;28;20681;-70
2021/11/02 11:16:53;;;;;;;37.50;23.88;;;11.40;99.90;;;;;;5069014;28;20590;-72
2021/11/02 11:19:35;;;;;;;35.45;23.98;;;11.50;99.90;;;;;;5063152;28;20209;-73
2021/11/02 11:22:05;;;;;;;43.03;25.73;;;11.50;99.90;;;;;;5065500;28;20173;-72
2021/11/02 11:25:25;;;;;;;43.83;26.58;;;11.50;99.90;;;;;;5065786;28;20286;-71
2021/11/02 11:28:30;;;;;;;51.70;27.50;;;11.50;99.90;;;;;;5058525;28;20274;-73
2021/11/02 11:30:58;;;;;;;45.78;28.38;;;11.50;99.90;;;;;;5058154;28;20305;-69
2021/11/02 11:33:29;;;;;;;42.38;27.38;;;11.50;99.90;;;;;;5084753;28;20216;-70
2021/11/02 11:36:19;;;;;;;48.95;26.58;;;11.50;99.90;;;;;;5068001;28;20263;-74
2021/11/02 11:41:32;;;;;;;48.30;25.92;;;11.50;99.90;;;;;;5314170;22;20297;-71
2021/11/02 11:44:13;;;;;;;44.90;28.55;;;11.60;99.90;;;;;;5077181;28;20188;-71
2021/11/02 11:46:44;;;;;;;47.40;27.35;;;11.60;99.90;;;;;;5074375;28;20283;-69
2021/11/02 11:49:36;;;;;;;46.75;27.15;;;11.60;99.90;;;;;;5076242;28;20176;-72
2021/11/02 11:52:06;;;;;;;48.20;27.25;;;11.60;99.90;;;;;;5053509;28;20214;-73
2021/11/02 11:54:53;;;;;;;48.95;30.33;;;11.70;99.90;;;;;;5064784;28;20220;-71
2021/11/02 11:57:34;;;;;;;45.90;27.85;;;11.70;99.90;;;;;;5071885;28;20183;-70
2021/11/02 12:03:57;;;;;;;47.40;29.50;;;11.70;99.90;;;;;;5087430;28;20753;-73
2021/11/02 12:06:45;;;;;;;52.85;31.38;;;11.70;99.90;;;;;;5071625;28;20263;-71
2021/11/02 12:09:22;;;;;;;53.70;29.17;;;11.80;99.90;;;;;;5069795;28;20184;-75
2021/11/02 12:11:52;;;;;;;50.22;30.02;;;11.80;99.90;;;;;;5067116;28;20187;-73
2021/11/02 12:14:27;;;;;;;55.70;31.80;;;11.90;99.90;;;;;;5070705;28;20212;-75
2021/11/02 12:17:17;;;;;;;53.80;33.28;;;11.90;99.90;;;;;;5060524;28;20184;-71
2021/11/02 12:20:04;;;;;;;65.50;37.97;;;11.90;99.90;;;;;;5060492;28;20626;-71
2021/11/02 12:22:39;;;;;;;63.08;38.33;;;11.90;99.90;;;;;;5062886;28;20554;-69
2021/11/02 12:25:09;;;;;;;71.85;35.58;;;11.90;99.90;;;;;;5067465;28;20688;-70
2021/11/02 12:27:39;;;;;;;69.43;39.65;;;12.00;99.90;;;;;;5071983;28;20574;-71
2021/11/02 12:30:13;;;;;;;60.88;36.10;;;12.00;99.90;;;;;;5061962;28;20240;-71
2021/11/02 12:32:50;;;;;;;64.32;34.97;;;12.00;99.90;;;;;;5060060;28;20179;-71
2021/11/02 12:36:06;;;;;;;69.95;38.17;;;12.00;99.90;;;;;;5061043;28;20712;-71
2021/11/02 12:38:46;;;;;;;75.15;39.50;;;12.00;99.90;;;;;;5065666;28;20188;-74
2021/11/02 12:41:20;;;;;;;71.63;39.33;;;12.00;99.90;;;;;;5069200;28;20756;-71
2021/11/02 12:44:23;;;;;;;74.40;41.30;;;12.10;99.90;;;;;;5064994;28;20176;-73
2021/11/02 12:47:01;;;;;;;86.85;46.05;;;12.10;99.90;;;;;;5040082;28;20192;-74
2021/11/02 12:49:44;;;;;;;72.93;44.35;;;12.20;99.90;;;;;;5072916;28;20196;-71
2021/11/02 12:52:25;;;;;;;80.57;44.15;;;12.20;99.90;;;;;;5071391;28;20637;-74
2021/11/02 12:55:23;;;;;;;84.75;46.08;;;12.20;99.90;;;;;;5070750;28;20274;-71
2021/11/02 12:58:12;;;;;;;80.30;47.10;;;12.20;99.90;;;;;;5077142;28;20172;-71
2021/11/02 13:00:44;;;;;;;70.43;40.23;;;12.30;99.90;;;;;;5072172;28;20208;-74
2021/11/02 13:03:42;;;;;;;67.70;38.37;;;12.30;99.90;;;;;;5070571;28;20839;-71
2021/11/02 13:06:10;;;;;;;64.47;36.70;;;12.30;99.90;;;;;;5060647;28;20468;-69
2021/11/02 13:09:02;;;;;;;65.68;36.95;;;12.30;99.90;;;;;;5063426;28;20177;-72
2021/11/02 13:11:47;;;;;;;64.82;37.72;;;12.30;99.90;;;;;;5081509;28;20184;-73
2021/11/02 13:14:16;;;;;;;67.22;36.20;;;12.40;99.90;;;;;;5068854;28;20212;-73
2021/11/02 13:17:01;;;;;;;66.28;36.95;;;12.40;99.90;;;;;;5085480;28;20562;-71
2021/11/02 13:19:50;;;;;;;62.50;35.58;;;12.40;99.90;;;;;;5067169;28;20212;-70
2021/11/02 13:22:22;;;;;;;58.15;33.95;;;12.40;99.90;;;;;;5079383;28;20205;-71
2021/11/02 13:25:11;;;;;;;54.57;33.53;;;12.30;99.90;;;;;;5062901;28;20689;-71
2021/11/02 13:27:43;;;;;;;61.95;34.33;;;12.30;99.90;;;;;;5063723;28;20437;-72
2021/11/02 13:30:33;;;;;;;56.22;33.63;;;12.20;99.90;;;;;;5068356;28;20208;-74
2021/11/02 13:33:07;;;;;;;53.08;32.00;;;12.20;99.90;;;;;;5065414;28;20542;-72
2021/11/02 13:36:02;;;;;;;55.33;31.55;;;12.20;99.90;;;;;;5061162;28;20690;-73
2021/11/02 13:38:38;;;;;;;53.70;31.75;;;12.20;99.90;;;;;;5086408;28;20663;-74
2021/11/02 13:41:29;;;;;;;57.08;30.95;;;12.20;99.90;;;;;;5063442;28;20236;-71
2021/11/02 13:44:03;;;;;;;63.78;36.75;;;12.20;99.90;;;;;;5073717;28;20598;-73
2021/11/02 13:46:33;;;;;;;60.60;38.15;;;12.20;99.90;;;;;;5065852;28;20190;-72
2021/11/02 13:49:20;;;;;;;60.10;34.78;;;12.20;99.90;;;;;;5081212;28;20315;-75
2021/11/02 13:51:49;;;;;;;49.15;30.30;;;12.20;99.90;;;;;;5085969;28;20234;-72
2021/11/02 13:54:15;;;;;;;60.72;35.88;;;12.20;99.90;;;;;;5057005;28;20233;-74
2021/11/02 13:56:44;;;;;;;61.95;38.03;;;12.20;99.90;;;;;;5063373;28;20195;-73
2021/11/02 13:59:11;;;;;;;36.25;21.08;;;12.20;99.90;;;;;;5054276;28;20207;-72
2021/11/02 14:01:45;;;;;;;44.60;28.48;;;12.20;99.90;;;;;;5058202;28;20177;-75
2021/11/02 14:04:39;;;;;;;32.13;22.67;;;12.20;99.90;;;;;;5050328;28;20538;-75
2021/11/02 14:07:25;;;;;;;32.13;21.80;;;12.10;99.90;;;;;;5052396;28;20196;-74
2021/11/02 14:10:09;;;;;;;32.95;21.60;;;12.10;99.90;;;;;;5065246;28;20207;-75
2021/11/02 14:12:54;;;;;;;35.92;23.80;;;12.10;99.90;;;;;;5062337;28;20179;-71
2021/11/02 14:15:20;;;;;;;28.27;19.17;;;12.00;99.90;;;;;;5065820;28;20980;-75
2021/11/02 14:17:58;;;;;;;26.30;18.08;;;12.00;99.90;;;;;;5067355;28;20188;-74
2021/11/02 14:20:57;;;;;;;31.90;19.25;;;12.00;99.90;;;;;;5058938;28;20693;-71
2021/11/02 14:23:38;;;;;;;44.03;24.92;;;11.90;99.90;;;;;;5049343;28;20668;-72
2021/11/02 14:26:22;;;;;;;27.13;18.65;;;11.90;99.90;;;;;;5049105;28;20811;-72
2021/11/02 14:29:00;;;;;;;26.30;18.00;;;12.00;99.90;;;;;;5062970;28;20654;-72
2021/11/02 14:31:38;;;;;;;36.33;20.75;;;12.00;99.90;;;;;;5056392;28;20220;-72
2021/11/02 14:34:07;;;;;;;26.38;17.85;;;12.00;99.90;;;;;;5063250;28;20305;-75
2021/11/02 14:36:44;;;;;;;25.77;18.80;;;12.00;99.90;;;;;;5061924;28;20555;-75
2021/11/02 14:39:16;;;;;;;28.35;20.35;;;12.00;99.90;;;;;;5056207;28;20742;-72
2021/11/02 14:41:51;;;;;;;29.23;19.88;;;11.90;99.90;;;;;;5061981;28;20236;-74
2021/11/02 14:44:31;;;;;;;29.77;20.05;;;11.90;99.90;;;;;;5062979;28;20207;-72
2021/11/02 14:46:59;;;;;;;25.88;19.25;;;11.80;99.90;;;;;;5062055;28;20187;-72
2021/11/02 14:49:30;;;;;;;25.77;18.30;;;11.80;99.90;;;;;;5066737;28;20299;-71
2021/11/02 14:52:08;;;;;;;25.75;18.38;;;11.70;99.90;;;;;;5060323;28;20181;-74
2021/11/02 14:54:43;;;;;;;26.25;18.23;;;11.70;99.90;;;;;;5064688;28;20212;-75
2021/11/02 14:57:20;;;;;;;23.92;17.15;;;11.70;99.90;;;;;;5063109;28;20234;-72
2021/11/02 15:00:03;;;;;;;26.17;17.90;;;11.80;99.90;;;;;;5061227;28;20208;-74
2021/11/02 15:02:58;;;;;;;27.95;20.15;;;11.80;99.90;;;;;;5039532;28;20432;-72
2021/11/02 15:05:31;;;;;;;25.90;18.65;;;11.80;99.90;;;;;;5052454;28;20274;-75
2021/11/02 15:08:07;;;;;;;25.80;18.98;;;11.80;99.90;;;;;;5067316;28;20202;-75
2021/11/02 15:10:41;;;;;;;27.75;19.42;;;11.80;99.90;;;;;;5068436;28;20680;-75
2021/11/02 15:13:08;;;;;;;26.02;18.15;;;11.70;99.90;;;;;;5075016;28;20275;-70
2021/11/02 15:15:40;;;;;;;28.20;20.35;;;11.70;99.90;;;;;;5071609;28;20231;-74
2021/11/02 15:18:08;;;;;;;26.40;19.02;;;11.70;99.90;;;;;;5066933;28;20212;-74
2021/11/02 15:20:40;;;;;;;32.33;20.75;;;11.70;99.90;;;;;;5068649;28;20237;-74
2021/11/02 15:23:09;;;;;;;25.77;18.23;;;11.60;99.90;;;;;;5060060;28;20759;-74
2021/11/02 15:25:36;;;;;;;28.08;19.17;;;11.70;99.90;;;;;;5059319;28;20299;-72
2021/11/02 15:28:04;;;;;;;26.83;19.08;;;11.60;99.90;;;;;;5059781;28;20242;-71
2021/11/02 15:30:31;;;;;;;30.88;19.58;;;11.50;99.90;;;;;;5061536;28;20212;-70
2021/11/02 15:32:57;;;;;;;27.98;17.92;;;11.50;99.90;;;;;;5069365;28;20176;-73
2021/11/02 15:35:28;;;;;;;26.07;18.70;;;11.50;99.90;;;;;;5056970;28;20747;-74
2021/11/02 15:38:01;;;;;;;30.63;21.33;;;11.40;99.90;;;;;;5058214;28;20280;-75
2021/11/02 15:40:52;;;;;;;27.25;18.75;;;11.30;99.90;;;;;;5057247;28;20762;-74
2021/11/02 15:43:29;;;;;;;31.42;19.73;;;11.20;99.90;;;;;;5053009;28;20557;-73
2021/11/02 15:46:07;;;;;;;27.55;19.52;;;11.20;99.90;;;;;;5056087;28;20201;-73
2021/11/02 15:48:42;;;;;;;26.20;17.65;;;11.20;99.90;;;;;;5060405;28;20187;-73
2021/11/02 15:51:19;;;;;;;26.65;17.83;;;11.20;99.90;;;;;;5055424;28;20201;-74
2021/11/02 15:54:01;;;;;;;23.45;15.10;;;11.10;99.90;;;;;;5056025;28;20185;-73
2021/11/02 15:56:27;;;;;;;25.00;16.58;;;11.10;99.90;;;;;;5064709;28;20176;-73
2021/11/02 15:59:09;;;;;;;24.23;16.77;;;11.10;99.90;;;;;;5061401;28;20697;-72
2021/11/02 16:01:43;;;;;;;23.15;15.65;;;11.10;99.90;;;;;;5065586;28;20215;-73
2021/11/02 16:04:19;;;;;;;24.15;16.15;;;11.10;99.90;;;;;;5068845;28;20642;-73
2021/11/02 16:07:04;;;;;;;21.45;15.30;;;11.00;99.90;;;;;;5062480;28;20198;-70
2021/11/02 16:10:13;;;;;;;22.40;16.23;;;11.00;99.90;;;;;;5088399;28;20208;-72
2021/11/02 16:12:42;;;;;;;25.73;15.57;;;11.00;99.90;;;;;;4986641;28;20245;-73
2021/11/02 16:15:21;;;;;;;17.70;13.93;;;11.00;99.90;;;;;;5001797;28;20576;-73
2021/11/02 16:17:57;;;;;;;27.52;17.42;;;11.00;99.90;;;;;;5028613;28;20287;-71
2021/11/02 16:20:39;;;;;;;25.25;16.17;;;10.90;99.90;;;;;;5073976;28;20203;-72
2021/11/02 16:23:17;;;;;;;22.27;16.83;;;10.90;99.90;;;;;;5068552;28;20181;-70
2021/11/02 16:25:58;;;;;;;22.27;15.57;;;10.90;99.90;;;;;;5065504;28;20301;-71
2021/11/02 16:28:32;;;;;;;20.30;14.60;;;10.90;99.90;;;;;;5060662;28;20213;-71
2021/11/02 16:31:01;;;;;;;23.67;17.23;;;10.90;99.90;;;;;;5060724;28;20208;-72
2021/11/02 16:33:50;;;;;;;24.50;18.80;;;10.90;99.90;;;;;;5058366;28;20180;-72
2021/11/02 16:36:28;;;;;;;27.42;18.38;;;10.90;99.90;;;;;;5066624;28;20217;-72
2021/11/02 16:39:03;;;;;;;28.08;19.23;;;10.90;99.90;;;;;;5057861;28;20271;-72
2021/11/02 16:41:37;;;;;;;28.65;19.90;;;10.90;99.90;;;;;;5086289;28;20741;-74
2021/11/02 16:44:10;;;;;;;26.60;18.60;;;10.90;99.90;;;;;;5074698;28;20250;-72
2021/11/02 16:47:02;;;;;;;28.02;18.15;;;10.90;99.90;;;;;;5065537;28;20229;-73
2021/11/02 16:49:36;;;;;;;29.45;18.35;;;10.90;99.90;;;;;;5062443;28;20204;-75
2021/11/02 16:52:08;;;;;;;24.77;18.30;;;10.90;99.90;;;;;;5080829;28;20181;-72
2021/11/02 16:54:44;;;;;;;25.88;17.55;;;10.90;99.90;;;;;;5065558;28;20255;-72
2021/11/02 16:57:22;;;;;;;28.40;18.60;;;10.90;99.90;;;;;;5055674;28;20219;-73
2021/11/02 16:59:51;;;;;;;28.83;18.15;;;10.90;99.90;;;;;;5072869;28;20209;-70
2021/11/02 17:02:30;;;;;;;28.33;18.60;;;10.90;99.90;;;;;;5072663;28;20192;-70
2021/11/02 17:05:26;;;;;;;27.00;17.70;;;10.90;99.90;;;;;;5071590;28;20220;-70
2021/11/02 17:08:04;;;;;;;27.02;18.23;;;10.90;99.90;;;;;;5060817;28;20193;-69
2021/11/02 17:10:50;;;;;;;29.05;19.70;;;10.90;99.90;;;;;;5056222;28;20201;-72
2021/11/02 17:13:26;;;;;;;25.40;16.83;;;10.80;99.90;;;;;;5066472;28;20255;-72
2021/11/02 17:15:54;;;;;;;28.50;18.80;;;10.80;99.90;;;;;;5063951;28;20330;-72
2021/11/02 17:18:30;;;;;;;25.00;16.48;;;10.80;99.90;;;;;;5073201;28;20169;-70
2021/11/02 17:21:03;;;;;;;25.02;16.70;;;10.80;99.90;;;;;;5064522;28;20208;-69
2021/11/02 17:23:36;;;;;;;26.10;16.65;;;10.80;99.90;;;;;;5065980;28;20554;-72
2021/11/02 17:26:05;;;;;;;26.40;16.33;;;10.80;99.90;;;;;;5058751;28;20262;-72
2021/11/02 17:28:32;;;;;;;21.85;14.60;;;10.70;99.90;;;;;;5051562;28;20176;-68
2021/11/02 17:31:05;;;;;;;22.73;15.15;;;10.70;99.90;;;;;;5059741;28;20596;-70
2021/11/02 17:33:33;;;;;;;25.88;16.27;;;10.70;99.90;;;;;;5078869;28;20276;-69
2021/11/02 17:36:06;;;;;;;22.67;16.05;;;10.70;99.90;;;;;;5059133;28;20273;-75
2021/11/02 17:38:34;;;;;;;21.65;15.10;;;10.80;99.90;;;;;;5054827;28;20528;-75
2021/11/02 17:41:04;;;;;;;20.55;14.57;;;10.70;99.90;;;;;;5052394;28;20316;-72
2021/11/02 17:43:35;;;;;;;21.45;15.50;;;10.70;99.90;;;;;;5068762;28;20176;-75
2021/11/02 17:46:03;;;;;;;20.85;14.00;;;10.70;99.90;;;;;;5064512;28;20709;-73
2021/11/02 17:48:39;;;;;;;22.00;15.20;;;10.80;99.90;;;;;;5056025;28;20169;-71
2021/11/02 17:51:05;;;;;;;19.90;14.10;;;10.80;99.90;;;;;;5068956;28;20239;-72
2021/11/02 17:53:36;;;;;;;17.77;13.65;;;10.80;99.90;;;;;;5070014;28;20245;-70
2021/11/02 17:56:29;;;;;;;19.17;13.45;;;10.80;99.90;;;;;;5068622;28;20553;-73
2021/11/02 17:58:58;;;;;;;19.05;13.68;;;10.80;99.90;;;;;;5064489;28;20238;-69
2021/11/02 18:01:25;;;;;;;18.70;13.45;;;10.80;99.90;;;;;;5062490;28;20639;-70
2021/11/02 18:03:52;;;;;;;16.15;12.63;;;10.80;99.90;;;;;;5079717;28;20258;-70
2021/11/02 18:06:36;;;;;;;17.42;12.88;;;10.70;99.90;;;;;;5068626;28;20262;-70
2021/11/02 18:09:08;;;;;;;16.55;13.27;;;10.80;99.90;;;;;;5065271;28;20183;-73
2021/11/02 18:11:39;;;;;;;17.88;13.48;;;10.80;99.90;;;;;;5071676;28;20180;-72
2021/11/02 18:14:21;;;;;;;12.30;10.77;;;10.80;99.90;;;;;;5067876;28;20204;-73
2021/11/02 18:16:49;;;;;;;13.68;11.60;;;10.80;99.90;;;;;;5062579;28;20185;-70